createdAt,value
2023-02-13T00:04:49.910Z,13.57
2023-02-13T00:10:11.711Z,14.80
2023-02-13T00:15:33.638Z,13.07
2023-02-13T00:21:04.692Z,13.63
2023-02-13T00:26:26.368Z,14.47
2023-02-13T00:31:48.143Z,13.87
2023-02-13T00:37:09.944Z,14.33
2023-02-13T00:42:31.621Z,14.37
2023-02-13T00:47:53.290Z,14.40
2023-02-13T00:53:15.019Z,14.77
2023-02-13T00:58:37.051Z,15.33
2023-02-13T01:03:58.781Z,15.63
2023-02-13T01:09:20.536Z,16.83
2023-02-13T01:14:42.197Z,16.30
2023-02-13T01:20:03.928Z,17.00
2023-02-13T01:25:25.658Z,17.70
2023-02-13T01:30:53.505Z,18.37
2023-02-13T01:36:15.483Z,18.13
2023-02-13T01:41:37.218Z,19.20
2023-02-13T01:46:58.985Z,17.70
2023-02-13T01:52:20.706Z,18.87
2023-02-13T01:57:48.971Z,18.50
2023-02-13T02:03:33.492Z,17.63
2023-02-13T02:09:00.087Z,18.13
2023-02-13T02:14:21.890Z,16.33
2023-02-13T02:19:53.887Z,17.33
2023-02-13T02:25:38.565Z,16.63
2023-02-13T02:31:37.907Z,16.53
2023-02-13T02:37:50.786Z,16.13
2023-02-13T02:43:31.541Z,16.90
2023-02-13T02:49:25.701Z,17.57
2023-02-13T02:55:09.071Z,17.50
2023-02-13T03:00:53.590Z,17.67
2023-02-13T03:06:21.910Z,17.17
2023-02-13T03:12:07.249Z,18.60
2023-02-13T03:17:47.551Z,17.80
2023-02-13T03:23:22.902Z,17.60
2023-02-13T03:29:52.925Z,18.80
2023-02-13T03:35:55.927Z,18.33
2023-02-13T03:41:26.647Z,19.97
2023-02-13T03:46:52.603Z,19.70
2023-02-13T03:52:29.662Z,19.80
2023-02-13T03:58:15.834Z,20.97
2023-02-13T04:03:59.100Z,19.50
2023-02-13T04:09:20.862Z,18.63
2023-02-13T04:14:57.287Z,18.30
2023-02-13T04:20:19.384Z,18.97
2023-02-13T04:25:46.097Z,19.37
2023-02-13T04:31:07.822Z,19.20
2023-02-13T04:36:29.756Z,18.90
2023-02-13T04:41:51.429Z,18.30
2023-02-13T04:47:13.144Z,17.43
2023-02-13T04:52:34.802Z,18.30
2023-02-13T04:57:57.155Z,17.30
2023-02-13T05:03:19.113Z,16.57
2023-02-13T05:08:40.930Z,17.83
2023-02-13T05:14:02.602Z,17.70
2023-02-13T05:19:24.268Z,18.63
2023-02-13T05:24:45.938Z,16.47
2023-02-13T05:30:08.235Z,16.70
2023-02-13T05:35:30.932Z,15.47
2023-02-13T05:40:52.643Z,15.40
2023-02-13T05:46:14.493Z,16.27
2023-02-13T05:51:36.574Z,15.17
2023-02-13T05:56:58.259Z,15.93
2023-02-13T06:02:19.930Z,16.13
2023-02-13T06:07:41.660Z,17.73
2023-02-13T06:13:03.377Z,17.47
2023-02-13T06:18:25.101Z,16.50
2023-02-13T06:23:46.801Z,16.67
2023-02-13T06:29:09.291Z,16.20
2023-02-13T06:34:31.022Z,16.50
2023-02-13T06:39:52.697Z,16.57
2023-02-13T06:45:14.826Z,18.43
2023-02-13T06:50:36.517Z,18.90
2023-02-13T06:55:58.212Z,19.07
2023-02-13T07:01:20.069Z,19.33
2023-02-13T07:06:41.849Z,17.90
2023-02-13T07:12:06.673Z,17.60
2023-02-13T07:17:29.076Z,19.40
2023-02-13T07:22:50.963Z,20.90
2023-02-13T07:28:13.597Z,22.47
2023-02-13T07:33:42.106Z,22.17
2023-02-13T07:39:04.102Z,22.07
2023-02-13T07:44:25.798Z,21.67
2023-02-13T07:49:47.657Z,21.50
2023-02-13T07:55:11.581Z,22.13
2023-02-13T08:00:33.309Z,21.23
2023-02-13T08:05:55.237Z,21.63
2023-02-13T08:11:47.091Z,22.33
2023-02-13T08:17:09.774Z,21.30
2023-02-13T08:22:31.453Z,22.17
2023-02-13T08:27:53.122Z,22.37
2023-02-13T08:33:14.790Z,22.83
2023-02-13T08:38:36.509Z,22.03
2023-02-13T08:43:58.192Z,27.90
2023-02-13T08:49:19.895Z,25.27
2023-02-13T08:54:41.643Z,22.70
2023-02-13T09:00:03.858Z,24.97
2023-02-13T09:05:25.553Z,23.50
2023-02-13T09:10:47.346Z,21.63
2023-02-13T09:16:10.573Z,19.10
2023-02-13T09:21:32.254Z,20.57
2023-02-13T09:26:54.053Z,20.13
2023-02-13T09:32:16.965Z,19.60
2023-02-13T09:37:38.644Z,19.70
2023-02-13T09:43:13.878Z,18.53
2023-02-13T09:48:39.081Z,18.33
2023-02-13T09:54:07.408Z,15.67
2023-02-13T09:59:56.967Z,15.97
2023-02-13T10:05:44.306Z,14.60
2023-02-13T10:11:20.638Z,15.53
2023-02-13T10:16:50.770Z,14.80
2023-02-13T10:22:18.276Z,15.40
2023-02-13T10:28:04.042Z,15.07
2023-02-13T10:33:30.278Z,13.97
2023-02-13T10:39:02.500Z,14.43
2023-02-13T10:44:50.557Z,13.60
2023-02-13T10:50:30.795Z,13.63
2023-02-13T10:56:03.986Z,13.30
2023-02-13T11:01:49.998Z,13.17
2023-02-13T11:07:16.118Z,11.73
2023-02-13T11:12:37.845Z,11.33
2023-02-13T11:18:11.949Z,10.93
2023-02-13T11:23:38.086Z,10.73
2023-02-13T11:29:06.234Z,10.87
2023-02-13T11:34:31.670Z,9.93
2023-02-13T11:39:58.756Z,9.33
2023-02-13T11:45:23.158Z,9.30
2023-02-13T11:50:52.225Z,8.07
2023-02-13T11:56:15.736Z,8.80
2023-02-13T12:01:37.528Z,9.35
2023-02-13T12:07:11.686Z,9.00
2023-02-13T12:12:44.027Z,10.20
2023-02-13T12:18:08.483Z,9.17
2023-02-13T12:23:57.677Z,9.88
2023-02-13T12:29:54.319Z,9.37
2023-02-13T12:35:21.971Z,10.10
2023-02-13T12:41:08.646Z,9.88
2023-02-13T12:47:10.545Z,9.43
2023-02-13T12:52:41.293Z,9.68
2023-02-13T12:58:15.679Z,13.13
2023-02-13T13:03:49.429Z,9.68
2023-02-13T13:09:20.016Z,9.75
2023-02-13T13:14:59.240Z,9.23
2023-02-13T13:20:48.713Z,9.43
2023-02-13T13:26:18.344Z,9.85
2023-02-13T13:31:40.484Z,10.35
2023-02-13T13:37:23.843Z,9.02
2023-02-13T13:43:08.173Z,10.13
2023-02-13T13:48:51.442Z,9.80
2023-02-13T13:54:13.068Z,10.02
2023-02-13T13:59:37.766Z,10.07
2023-02-13T14:05:20.984Z,9.88
2023-02-13T14:11:01.437Z,10.63
2023-02-13T14:16:41.593Z,9.57
2023-02-13T14:22:27.819Z,8.85
2023-02-13T14:28:02.091Z,9.07
2023-02-13T14:33:28.172Z,8.85
2023-02-13T14:38:57.863Z,9.57
2023-02-13T14:44:27.073Z,9.52
2023-02-13T14:49:51.050Z,9.65
2023-02-13T14:55:33.663Z,9.68
2023-02-13T15:01:29.114Z,8.43
2023-02-13T15:06:54.080Z,10.10
2023-02-13T15:12:28.400Z,9.52
2023-02-13T15:17:50.800Z,9.65
2023-02-13T15:23:21.585Z,10.00
2023-02-13T15:28:58.897Z,8.52
2023-02-13T15:34:25.137Z,8.90
2023-02-13T15:39:46.808Z,8.23
2023-02-13T15:45:16.449Z,8.15
2023-02-13T15:50:42.173Z,8.88
2023-02-13T15:56:05.429Z,8.00
2023-02-13T16:01:28.588Z,8.48
2023-02-13T16:06:53.039Z,9.27
2023-02-13T16:12:22.837Z,8.63
2023-02-13T16:17:46.808Z,8.50
2023-02-13T16:23:17.938Z,8.00
2023-02-13T16:28:39.769Z,9.25
2023-02-13T16:34:14.361Z,9.52
2023-02-13T16:39:36.073Z,9.60
2023-02-13T16:45:25.506Z,9.55
2023-02-13T16:50:55.318Z,9.43
2023-02-13T16:56:17.085Z,9.60
2023-02-13T17:01:38.768Z,9.77
2023-02-13T17:07:00.485Z,10.32
2023-02-13T17:12:23.596Z,9.40
2023-02-13T17:17:45.478Z,10.90
2023-02-13T17:23:12.049Z,11.10
2023-02-13T17:28:33.717Z,10.43
2023-02-13T17:33:55.454Z,10.80
2023-02-13T17:39:17.153Z,12.50
2023-02-13T17:44:38.822Z,12.30
2023-02-13T17:50:09.097Z,12.67
2023-02-13T17:55:33.740Z,13.03
2023-02-13T18:00:55.450Z,13.20
2023-02-13T18:06:17.154Z,13.63
2023-02-13T18:11:38.892Z,13.55
2023-02-13T18:17:00.802Z,13.87
2023-02-13T18:22:22.490Z,13.50
2023-02-13T18:27:44.592Z,13.67
2023-02-13T18:33:06.306Z,14.57
2023-02-13T18:38:29.211Z,14.30
2023-02-13T18:43:50.909Z,17.63
2023-02-13T18:49:12.626Z,14.63
2023-02-13T18:54:34.348Z,16.67
2023-02-13T18:59:56.062Z,16.43
2023-02-13T19:05:18.216Z,15.93
2023-02-13T19:10:39.897Z,15.10
2023-02-13T19:16:10.054Z,15.03
2023-02-13T19:21:33.845Z,15.80
2023-02-13T19:26:55.540Z,15.30
2023-02-13T19:32:17.409Z,18.73
2023-02-13T19:37:44.059Z,17.77
2023-02-13T19:43:06.439Z,18.73
2023-02-13T19:48:28.187Z,15.90
2023-02-13T19:53:56.535Z,15.63
2023-02-13T19:59:18.328Z,18.07
2023-02-13T20:04:40.033Z,16.57
2023-02-13T20:10:01.759Z,16.93
2023-02-13T20:15:24.635Z,16.03
2023-02-13T20:20:47.167Z,15.43
2023-02-13T20:26:11.277Z,15.50
2023-02-13T20:31:34.348Z,15.37
2023-02-13T20:36:56.183Z,15.63
2023-02-13T20:42:17.852Z,15.27
2023-02-13T20:47:41.685Z,15.67
2023-02-13T20:53:03.363Z,15.50
2023-02-13T20:58:25.035Z,15.37
2023-02-13T21:03:49.873Z,16.83
2023-02-13T21:09:12.729Z,17.03
2023-02-13T21:14:34.582Z,17.90
2023-02-13T21:19:56.324Z,17.83
2023-02-13T21:25:18.695Z,17.03
2023-02-13T21:30:40.492Z,17.00
2023-02-13T21:36:04.730Z,17.57
2023-02-13T21:41:27.222Z,15.50
2023-02-13T21:46:49.015Z,17.37
2023-02-13T21:52:10.806Z,16.60
2023-02-13T21:57:32.539Z,16.27
2023-02-13T22:02:54.364Z,16.30
2023-02-13T22:08:16.072Z,17.57
2023-02-13T22:13:41.479Z,16.90
2023-02-13T22:19:05.271Z,18.50
2023-02-13T22:24:27.686Z,17.33
2023-02-13T22:29:51.231Z,16.90
2023-02-13T22:35:12.994Z,18.33
2023-02-13T22:40:35.666Z,18.40
2023-02-13T22:46:02.552Z,16.83
2023-02-13T22:51:27.298Z,18.00
2023-02-13T22:56:49.070Z,17.93
2023-02-13T23:02:10.919Z,18.27
2023-02-13T23:07:32.779Z,18.80
2023-02-13T23:12:54.448Z,18.37
2023-02-13T23:18:17.863Z,17.80
2023-02-13T23:23:39.601Z,19.87
2023-02-13T23:29:01.330Z,18.60
2023-02-13T23:34:23.069Z,18.27
2023-02-13T23:39:45.042Z,20.10
2023-02-13T23:45:07.159Z,19.60
2023-02-13T23:50:28.858Z,18.87
2023-02-13T23:55:50.637Z,18.20
